Time;durP1;ratioP1;P1;durP2;ratioP2;P2;SDS_P1;SDS_P2;PMS_P1;PMS_P2;Temp;Humidity;BMP_temperature;BMP_pressure;BME280_temperature;BME280_humidity;BME280_pressure;Samples;Min_cycle;Max_cycle;Signal;HPM_P1;HPM_P2
2023/12/27 00:01:51;;;;;;;12.18;2.92;;;4.00;99.90;;;;;;5012301;28;20081;-88
2023/12/27 00:04:18;;;;;;;13.82;3.38;;;4.00;99.90;;;;;;4994483;28;20408;-88
2023/12/27 00:06:44;;;;;;;10.65;3.08;;;4.00;99.90;;;;;;5012289;28;20506;-89
2023/12/27 00:09:09;;;;;;;14.23;2.67;;;4.00;99.90;;;;;;5011928;28;20049;-88
2023/12/27 00:11:36;;;;;;;10.02;2.70;;;4.00;99.90;;;;;;5011270;28;20046;-89
2023/12/27 00:14:02;;;;;;;10.48;2.63;;;4.00;99.90;;;;;;5011661;28;20545;-88
2023/12/27 00:16:29;;;;;;;9.00;2.58;;;3.90;99.90;;;;;;5011798;28;20088;-89
2023/12/27 00:18:55;;;;;;;8.07;2.33;;;3.90;99.90;;;;;;5011825;28;20096;-88
2023/12/27 00:21:21;;;;;;;7.97;2.33;;;3.90;99.90;;;;;;5011896;28;20061;-89
2023/12/27 00:23:47;;;;;;;11.60;2.78;;;3.90;99.90;;;;;;5011491;28;20057;-88
2023/12/27 00:26:13;;;;;;;8.23;2.20;;;3.90;99.90;;;;;;5007119;28;20220;-89
2023/12/27 00:28:39;;;;;;;8.55;2.00;;;3.90;99.90;;;;;;5014712;28;20497;-88
2023/12/27 00:31:04;;;;;;;9.75;2.17;;;3.90;99.90;;;;;;5023347;28;20301;-88
2023/12/27 00:33:30;;;;;;;11.02;1.88;;;3.90;99.90;;;;;;5010223;28;20647;-88
2023/12/27 00:35:56;;;;;;;10.43;2.60;;;3.90;99.90;;;;;;5011576;28;20058;-89
2023/12/27 00:38:21;;;;;;;9.73;2.00;;;3.90;99.90;;;;;;5011362;28;20042;-89
2023/12/27 00:40:47;;;;;;;10.63;2.60;;;3.90;99.90;;;;;;5009499;28;20421;-88
2023/12/27 00:43:13;;;;;;;11.15;2.85;;;3.80;99.90;;;;;;5010272;28;20046;-88
2023/12/27 00:45:38;;;;;;;24.63;2.95;;;3.80;99.90;;;;;;5007569;28;20104;-87
2023/12/27 00:48:05;;;;;;;7.90;2.33;;;3.80;99.90;;;;;;5009017;28;20129;-87
2023/12/27 00:50:30;;;;;;;6.07;2.38;;;3.80;99.90;;;;;;5008579;28;20053;-88
2023/12/27 00:52:56;;;;;;;8.15;2.35;;;3.80;99.90;;;;;;5009743;28;20414;-86
2023/12/27 00:55:23;;;;;;;6.85;2.13;;;3.80;99.90;;;;;;5008759;28;20046;-88
2023/12/27 00:57:49;;;;;;;6.25;2.38;;;3.90;99.90;;;;;;5007653;28;20538;-88
2023/12/27 01:00:15;;;;;;;12.88;1.98;;;3.80;99.90;;;;;;5009349;28;20464;-88
2023/12/27 01:02:41;;;;;;;12.73;3.00;;;3.80;99.90;;;;;;5018343;28;20052;-85
2023/12/27 01:05:07;;;;;;;7.75;2.00;;;3.80;99.90;;;;;;5017613;28;20046;-87
2023/12/27 01:07:33;;;;;;;9.07;1.75;;;3.80;99.90;;;;;;5009309;28;20478;-88
2023/12/27 01:09:58;;;;;;;8.90;1.80;;;3.80;99.90;;;;;;5006669;28;20085;-88
2023/12/27 01:12:24;;;;;;;10.15;2.38;;;3.80;99.90;;;;;;5008859;28;20041;-88
2023/12/27 01:14:50;;;;;;;9.18;2.22;;;3.70;99.90;;;;;;5008698;28;20056;-88
2023/12/27 01:17:15;;;;;;;9.88;2.00;;;3.70;99.90;;;;;;5009393;28;20123;-88
2023/12/27 01:19:41;;;;;;;14.35;2.08;;;3.70;99.90;;;;;;5009050;28;20042;-89
2023/12/27 01:22:06;;;;;;;9.73;1.80;;;3.70;99.90;;;;;;5009301;28;20046;-87
2023/12/27 01:24:32;;;;;;;8.55;2.20;;;3.70;99.90;;;;;;5008466;28;20096;-89
2023/12/27 01:26:58;;;;;;;10.93;2.10;;;3.70;99.90;;;;;;5003354;28;20083;-88
2023/12/27 01:29:23;;;;;;;7.50;2.20;;;3.60;99.90;;;;;;5011682;28;20041;-89
2023/12/27 01:31:49;;;;;;;15.82;2.83;;;3.60;99.90;;;;;;5008341;28;20129;-88
2023/12/27 01:34:14;;;;;;;7.10;2.30;;;3.60;99.90;;;;;;5009081;28;20555;-89
2023/12/27 01:36:40;;;;;;;10.60;2.22;;;3.60;99.90;;;;;;4999979;28;20046;-89
2023/12/27 01:39:06;;;;;;;9.70;2.10;;;3.60;99.90;;;;;;5005080;28;20141;-87
2023/12/27 01:41:32;;;;;;;11.55;2.30;;;3.70;99.90;;;;;;5008222;28;20093;-88
2023/12/27 01:43:58;;;;;;;7.72;1.95;;;3.60;99.90;;;;;;5008586;28;20060;-87
2023/12/27 01:46:24;;;;;;;10.23;2.08;;;3.50;99.90;;;;;;5008610;28;20144;-87
2023/12/27 01:48:50;;;;;;;8.90;1.92;;;3.50;99.90;;;;;;5006047;28;20041;-88
2023/12/27 01:51:17;;;;;;;10.60;1.90;;;3.50;99.90;;;;;;5008665;28;20056;-88
2023/12/27 01:53:43;;;;;;;11.05;2.42;;;3.50;99.90;;;;;;5008068;28;20054;-89
2023/12/27 01:56:08;;;;;;;7.75;2.03;;;3.50;99.90;;;;;;5008788;28;20108;-88
2023/12/27 01:58:34;;;;;;;8.77;2.70;;;3.50;99.90;;;;;;5009604;28;20425;-87
2023/12/27 02:01:00;;;;;;;8.75;1.55;;;3.40;99.90;;;;;;5007568;28;20412;-88
2023/12/27 02:03:26;;;;;;;10.00;1.70;;;3.40;99.90;;;;;;5007961;28;20057;-88
2023/12/27 02:05:56;;;;;;;8.85;1.90;;;3.40;99.90;;;;;;5010235;28;20048;-88
2023/12/27 02:08:22;;;;;;;13.38;2.17;;;3.40;99.90;;;;;;5017348;28;20042;-86
2023/12/27 02:10:48;;;;;;;5.95;1.83;;;3.30;99.90;;;;;;5014026;28;20045;-87
2023/12/27 02:13:14;;;;;;;8.23;1.95;;;3.30;99.90;;;;;;5015187;28;20061;-87
2023/12/27 02:15:39;;;;;;;9.60;2.10;;;3.30;99.90;;;;;;5013821;28;20517;-88
2023/12/27 02:18:07;;;;;;;9.02;1.98;;;3.30;99.90;;;;;;5013428;28;20045;-88
2023/12/27 02:20:33;;;;;;;8.48;1.92;;;3.30;99.90;;;;;;5011989;28;20046;-87
2023/12/27 02:23:02;;;;;;;11.57;1.95;;;3.30;99.90;;;;;;5012090;28;20149;-87
2023/12/27 02:25:28;;;;;;;9.80;2.28;;;3.20;99.90;;;;;;5011795;28;20081;-88
2023/12/27 02:27:54;;;;;;;8.82;2.10;;;3.20;99.90;;;;;;5006985;28;20095;-87
2023/12/27 02:30:21;;;;;;;9.88;2.20;;;3.20;99.90;;;;;;5006056;28;20133;-88
2023/12/27 02:32:48;;;;;;;7.85;1.95;;;3.20;99.90;;;;;;4996103;28;20054;-87
2023/12/27 02:35:14;;;;;;;11.27;2.03;;;3.20;99.90;;;;;;5009977;28;20536;-87
2023/12/27 02:37:40;;;;;;;10.27;2.83;;;3.20;99.90;;;;;;5012407;28;20050;-89
2023/12/27 02:40:07;;;;;;;4.85;1.77;;;3.20;99.90;;;;;;5012845;28;20049;-87
2023/12/27 02:42:32;;;;;;;6.80;1.98;;;3.20;99.90;;;;;;5011966;28;20045;-86
2023/12/27 02:44:58;;;;;;;8.73;1.75;;;3.20;99.90;;;;;;5009779;28;20044;-87
2023/12/27 02:47:24;;;;;;;9.25;3.05;;;3.20;99.90;;;;;;4988745;28;20612;-86
2023/12/27 02:49:49;;;;;;;8.45;1.90;;;3.30;99.90;;;;;;5010067;28;20038;-87
2023/12/27 02:52:15;;;;;;;12.30;2.17;;;3.10;99.90;;;;;;5011588;28;20394;-88
2023/12/27 02:54:40;;;;;;;9.05;2.03;;;3.10;99.90;;;;;;5011238;28;20042;-85
2023/12/27 02:57:06;;;;;;;9.07;2.00;;;3.40;99.90;;;;;;5009592;28;20100;-87
2023/12/27 02:59:32;;;;;;;6.43;1.73;;;3.10;99.90;;;;;;5012219;28;20042;-87
2023/12/27 03:01:57;;;;;;;8.57;2.33;;;3.10;99.90;;;;;;5014396;28;20049;-86
2023/12/27 03:04:23;;;;;;;11.77;2.50;;;3.10;99.90;;;;;;5030702;28;20056;-88
2023/12/27 03:06:49;;;;;;;11.48;2.13;;;3.10;99.90;;;;;;5011380;28;20480;-87
2023/12/27 03:09:15;;;;;;;9.48;1.63;;;3.00;99.90;;;;;;5010696;28;20513;-88
2023/12/27 03:11:41;;;;;;;13.68;2.72;;;3.10;99.90;;;;;;5010767;28;20034;-88
2023/12/27 03:14:06;;;;;;;8.90;2.20;;;3.00;99.90;;;;;;5011589;28;20042;-86
2023/12/27 03:16:32;;;;;;;11.38;2.78;;;3.10;99.90;;;;;;5010861;28;20073;-88
2023/12/27 03:18:59;;;;;;;9.38;2.60;;;3.00;99.90;;;;;;5011678;28;20056;-85
2023/12/27 03:21:25;;;;;;;9.82;2.53;;;3.00;99.90;;;;;;5009813;28;20484;-87
2023/12/27 03:23:51;;;;;;;13.45;2.70;;;3.00;99.90;;;;;;5011339;28;20077;-86
2023/12/27 03:26:17;;;;;;;9.32;2.15;;;3.40;99.90;;;;;;5006626;28;20530;-87
2023/12/27 03:28:42;;;;;;;10.38;2.60;;;3.00;99.90;;;;;;5021460;28;20053;-88
2023/12/27 03:31:08;;;;;;;6.70;2.00;;;3.00;99.90;;;;;;5004260;28;20045;-87
2023/12/27 03:33:34;;;;;;;12.98;2.90;;;3.10;99.90;;;;;;5010070;28;20412;-87
2023/12/27 03:35:59;;;;;;;7.20;2.22;;;3.10;99.90;;;;;;5010729;28;20461;-87
2023/12/27 03:38:25;;;;;;;12.13;2.35;;;3.10;99.90;;;;;;5011862;28;20034;-87
2023/12/27 03:40:50;;;;;;;7.50;2.15;;;3.10;99.90;;;;;;5010655;28;20046;-87
2023/12/27 03:43:17;;;;;;;11.80;2.33;;;3.10;99.90;;;;;;5009911;28;20379;-85
2023/12/27 03:45:42;;;;;;;9.27;2.90;;;3.30;99.90;;;;;;5010118;28;20062;-88
2023/12/27 03:48:08;;;;;;;6.38;2.03;;;3.10;99.90;;;;;;5007588;28;20049;-86
2023/12/27 03:50:34;;;;;;;10.60;2.10;;;3.00;99.90;;;;;;5007270;28;20053;-86
2023/12/27 03:53:00;;;;;;;10.15;2.58;;;3.00;99.90;;;;;;5010724;28;20045;-87
2023/12/27 03:55:25;;;;;;;7.22;2.33;;;3.00;99.90;;;;;;5008816;28;20589;-88
2023/12/27 03:57:52;;;;;;;6.97;2.67;;;3.00;99.90;;;;;;5011760;28;20137;-87
2023/12/27 04:00:18;;;;;;;10.25;2.47;;;3.00;99.90;;;;;;5007499;28;20041;-86
2023/12/27 04:02:44;;;;;;;10.88;2.70;;;3.00;99.90;;;;;;5010675;28;20525;-88
2023/12/27 04:05:09;;;;;;;11.02;2.80;;;3.00;99.90;;;;;;5010786;28;20041;-87
2023/12/27 04:07:35;;;;;;;8.65;2.95;;;3.00;99.90;;;;;;5009280;28;20054;-87
2023/12/27 04:10:01;;;;;;;10.43;2.70;;;3.00;99.90;;;;;;5009716;28;20056;-87
2023/12/27 04:12:27;;;;;;;8.95;3.00;;;3.00;99.90;;;;;;5009303;28;20100;-87
2023/12/27 04:14:52;;;;;;;7.97;2.58;;;3.00;99.90;;;;;;5011409;28;20046;-87
2023/12/27 04:17:18;;;;;;;8.90;3.08;;;3.00;99.90;;;;;;5010319;28;20049;-86
2023/12/27 04:19:44;;;;;;;7.78;2.47;;;3.00;99.90;;;;;;5009149;28;20068;-88
2023/12/27 04:22:09;;;;;;;7.95;3.33;;;3.00;99.90;;;;;;5010492;28;20140;-87
2023/12/27 04:24:35;;;;;;;7.05;2.55;;;2.90;99.90;;;;;;5026606;28;20041;-87
2023/12/27 04:27:01;;;;;;;14.70;3.80;;;2.90;99.90;;;;;;5000997;28;20046;-88
2023/12/27 04:29:27;;;;;;;10.93;3.08;;;2.90;99.90;;;;;;5009485;28;20512;-87
2023/12/27 04:31:52;;;;;;;8.02;2.70;;;2.90;99.90;;;;;;5008564;28;20093;-87
2023/12/27 04:34:18;;;;;;;11.98;3.53;;;2.90;99.90;;;;;;5009944;28;20049;-86
2023/12/27 04:36:44;;;;;;;9.82;2.78;;;2.90;99.90;;;;;;5009523;28;20042;-84
2023/12/27 04:39:10;;;;;;;11.45;3.08;;;2.90;99.90;;;;;;5010208;28;20518;-88
2023/12/27 04:41:36;;;;;;;7.45;2.80;;;2.90;99.90;;;;;;5009714;28;20108;-85
2023/12/27 04:44:02;;;;;;;6.47;2.20;;;2.90;99.90;;;;;;5010080;28;20052;-87
2023/12/27 04:46:28;;;;;;;11.75;2.97;;;3.00;99.90;;;;;;5009528;28;20129;-87
2023/12/27 04:48:53;;;;;;;8.13;2.75;;;3.00;99.90;;;;;;5010090;28;20136;-86
2023/12/27 04:51:20;;;;;;;11.60;4.03;;;3.00;99.90;;;;;;5008073;28;20409;-87
2023/12/27 04:53:45;;;;;;;9.52;3.35;;;3.50;99.90;;;;;;5008693;28;20060;-85
2023/12/27 04:56:11;;;;;;;8.15;2.67;;;3.00;99.90;;;;;;5009320;28;20041;-87
2023/12/27 04:58:37;;;;;;;12.77;2.63;;;3.10;99.90;;;;;;5009410;28;20117;-87
2023/12/27 05:01:06;;;;;;;10.15;2.97;;;3.00;99.90;;;;;;5008528;28;20077;-87
2023/12/27 05:03:37;;;;;;;6.78;2.45;;;3.00;99.90;;;;;;5011677;28;20046;-87
2023/12/27 05:06:08;;;;;;;7.03;2.97;;;3.20;99.90;;;;;;5007885;28;20505;-87
2023/12/27 05:08:34;;;;;;;9.27;3.17;;;3.00;99.90;;;;;;5009990;28;20524;-87
2023/12/27 05:11:00;;;;;;;10.70;2.78;;;3.00;99.90;;;;;;5008406;28;20057;-87
2023/12/27 05:13:26;;;;;;;15.48;3.53;;;3.00;99.90;;;;;;5010191;28;20045;-87
2023/12/27 05:15:52;;;;;;;11.65;3.78;;;3.00;99.90;;;;;;5008859;28;20077;-86
2023/12/27 05:18:17;;;;;;;10.95;3.88;;;3.00;99.90;;;;;;5009476;28;20061;-85
2023/12/27 05:20:44;;;;;;;9.65;4.18;;;3.00;99.90;;;;;;5013447;28;20046;-86
2023/12/27 05:23:10;;;;;;;12.75;4.28;;;3.00;99.90;;;;;;5015184;28;20056;-86
2023/12/27 05:25:35;;;;;;;9.02;3.28;;;3.00;99.90;;;;;;5012043;28;20125;-86
2023/12/27 05:28:01;;;;;;;10.98;3.13;;;3.00;99.90;;;;;;5009433;28;20049;-87
2023/12/27 05:30:27;;;;;;;8.95;3.63;;;3.00;99.90;;;;;;5008609;28;20405;-86
2023/12/27 05:32:52;;;;;;;10.68;3.92;;;3.00;99.90;;;;;;5008744;28;20104;-88
2023/12/27 05:35:18;;;;;;;8.13;3.45;;;3.40;99.90;;;;;;5007990;28;20482;-87
2023/12/27 05:37:43;;;;;;;12.60;3.58;;;3.40;99.90;;;;;;5010036;28;20049;-88
2023/12/27 05:40:09;;;;;;;10.50;4.13;;;3.00;99.90;;;;;;5006763;28;20461;-87
2023/12/27 05:42:35;;;;;;;13.15;4.57;;;3.00;99.90;;;;;;5009004;28;20060;-88
2023/12/27 05:45:01;;;;;;;13.73;4.07;;;3.10;99.90;;;;;;5008132;28;20510;-86
2023/12/27 05:47:26;;;;;;;14.50;4.45;;;3.00;99.90;;;;;;5007703;28;20534;-86
2023/12/27 05:49:52;;;;;;;9.07;2.85;;;3.00;99.90;;;;;;5008698;28;20054;-88
2023/12/27 05:52:18;;;;;;;9.88;3.30;;;3.00;99.90;;;;;;5006331;28;20410;-86
2023/12/27 05:54:44;;;;;;;15.80;4.50;;;3.10;99.90;;;;;;5006041;28;20323;-87
2023/12/27 05:57:09;;;;;;;9.70;3.50;;;3.00;99.90;;;;;;5009396;28;20054;-89
2023/12/27 05:59:35;;;;;;;11.52;4.13;;;3.10;99.90;;;;;;5010007;28;20050;-88
2023/12/27 06:02:00;;;;;;;13.98;3.80;;;3.10;99.90;;;;;;5013169;28;20068;-89
2023/12/27 06:04:27;;;;;;;12.43;4.50;;;3.10;99.90;;;;;;5009795;28;20042;-86
2023/12/27 06:06:53;;;;;;;11.02;3.83;;;3.10;99.90;;;;;;5009922;28;20077;-89
2023/12/27 06:09:20;;;;;;;12.80;3.95;;;3.10;99.90;;;;;;5009881;28;20045;-86
2023/12/27 06:11:46;;;;;;;14.43;3.67;;;3.10;99.90;;;;;;5009430;28;20046;-88
2023/12/27 06:14:12;;;;;;;11.68;3.50;;;3.10;99.90;;;;;;5011038;28;20452;-88
2023/12/27 06:16:38;;;;;;;12.20;4.40;;;3.10;99.90;;;;;;5009650;28;20091;-88
2023/12/27 06:19:04;;;;;;;10.68;3.70;;;3.10;99.90;;;;;;5010955;28;20046;-87
2023/12/27 06:21:29;;;;;;;13.63;3.95;;;3.10;99.90;;;;;;5010265;28;20061;-86
2023/12/27 06:23:56;;;;;;;9.68;3.47;;;3.10;99.90;;;;;;5009592;28;20049;-87
2023/12/27 06:26:22;;;;;;;12.50;3.65;;;3.10;99.90;;;;;;5003037;28;20049;-88
2023/12/27 06:28:48;;;;;;;8.98;3.70;;;3.10;99.90;;;;;;5017080;28;20041;-85
2023/12/27 06:31:13;;;;;;;7.95;3.50;;;3.10;99.90;;;;;;5012110;28;20038;-88
2023/12/27 06:33:39;;;;;;;11.25;3.78;;;3.10;99.90;;;;;;5004836;28;20129;-88
2023/12/27 06:36:06;;;;;;;12.38;3.25;;;3.10;99.90;;;;;;4991228;28;20046;-87
2023/12/27 06:38:32;;;;;;;12.52;3.47;;;3.10;99.90;;;;;;5007995;28;20058;-85
2023/12/27 06:40:58;;;;;;;9.00;3.03;;;3.10;99.90;;;;;;5008657;28;20062;-86
2023/12/27 06:43:23;;;;;;;9.40;2.85;;;3.10;99.90;;;;;;5007681;28;20042;-87
2023/12/27 06:45:49;;;;;;;8.68;3.08;;;3.10;99.90;;;;;;5008756;28;20046;-86
2023/12/27 06:48:15;;;;;;;10.75;3.70;;;3.80;99.90;;;;;;5004377;28;20065;-87
2023/12/27 06:50:44;;;;;;;10.57;3.20;;;3.10;99.90;;;;;;5009336;28;20042;-85
2023/12/27 06:53:10;;;;;;;9.02;3.70;;;3.10;99.90;;;;;;5008949;28;20042;-87
2023/12/27 06:55:35;;;;;;;7.53;2.70;;;3.20;99.90;;;;;;4986963;28;20046;-87
2023/12/27 06:58:01;;;;;;;10.23;3.33;;;3.20;99.90;;;;;;4995498;28;20045;-88
2023/12/27 07:00:28;;;;;;;10.63;3.83;;;3.10;99.90;;;;;;5011673;28;20465;-86
2023/12/27 07:02:54;;;;;;;9.20;2.90;;;3.10;99.90;;;;;;5011418;28;20061;-87
2023/12/27 07:05:20;;;;;;;9.38;2.78;;;3.10;99.90;;;;;;5008129;28;20045;-88
2023/12/27 07:07:46;;;;;;;13.38;3.97;;;3.30;99.90;;;;;;5007776;28;20115;-87
2023/12/27 07:10:12;;;;;;;12.63;3.88;;;3.20;99.90;;;;;;5010106;28;20116;-87
2023/12/27 07:12:38;;;;;;;13.18;4.15;;;3.20;99.90;;;;;;5006491;28;20056;-84
2023/12/27 07:15:05;;;;;;;11.95;4.70;;;3.20;99.90;;;;;;5009189;28;20460;-86
2023/12/27 07:17:31;;;;;;;15.45;5.20;;;3.20;99.90;;;;;;5009722;28;20521;-88
2023/12/27 07:19:57;;;;;;;16.52;5.30;;;3.20;99.90;;;;;;5010982;28;20049;-86
2023/12/27 07:22:22;;;;;;;16.17;5.32;;;3.30;99.90;;;;;;5013059;28;20397;-87
2023/12/27 07:24:48;;;;;;;12.90;4.63;;;3.30;99.90;;;;;;5014447;28;20045;-85
2023/12/27 07:27:14;;;;;;;14.88;5.18;;;3.30;99.90;;;;;;5016123;28;20069;-85
2023/12/27 07:29:40;;;;;;;14.63;5.55;;;3.30;99.90;;;;;;5015238;28;20040;-83
2023/12/27 07:32:06;;;;;;;12.07;6.03;;;3.30;99.90;;;;;;5023858;28;20541;-83
2023/12/27 07:34:35;;;;;;;15.00;5.57;;;3.30;99.90;;;;;;5015217;28;20145;-88
2023/12/27 07:37:00;;;;;;;11.82;5.53;;;3.30;99.90;;;;;;5014893;28;20041;-87
2023/12/27 07:39:26;;;;;;;12.07;6.13;;;3.30;99.90;;;;;;5016182;28;20366;-85
2023/12/27 07:41:52;;;;;;;15.70;5.75;;;3.30;99.90;;;;;;5015750;28;20050;-88
2023/12/27 07:44:19;;;;;;;13.35;6.32;;;3.40;99.90;;;;;;5014116;28;20049;-85
2023/12/27 07:46:44;;;;;;;21.33;5.95;;;3.40;99.90;;;;;;5014329;28;20053;-86
2023/12/27 07:49:10;;;;;;;18.08;6.00;;;3.40;99.90;;;;;;5014093;28;20100;-84
2023/12/27 07:51:36;;;;;;;13.38;5.72;;;3.40;99.90;;;;;;5014910;28;20517;-86
2023/12/27 07:54:02;;;;;;;17.88;6.65;;;3.80;99.90;;;;;;5013333;28;20128;-88
2023/12/27 07:56:28;;;;;;;12.32;5.35;;;3.40;99.90;;;;;;5021746;28;20132;-83
2023/12/27 07:58:54;;;;;;;11.57;5.43;;;3.60;99.90;;;;;;5015776;28;20746;-85
2023/12/27 08:01:20;;;;;;;13.35;6.13;;;3.80;99.90;;;;;;5013760;28;20049;-83
2023/12/27 08:03:46;;;;;;;13.10;5.68;;;3.50;99.90;;;;;;5013363;28;20061;-82
2023/12/27 08:06:12;;;;;;;17.25;6.40;;;3.50;99.90;;;;;;5014893;28;20108;-83
2023/12/27 08:08:38;;;;;;;15.20;6.47;;;3.50;99.90;;;;;;5012731;28;20433;-83
2023/12/27 08:11:04;;;;;;;17.80;6.85;;;3.50;99.90;;;;;;5014763;28;20458;-86
2023/12/27 08:13:34;;;;;;;14.90;6.97;;;3.50;99.90;;;;;;5014439;28;20509;-85
2023/12/27 08:16:00;;;;;;;12.65;7.03;;;3.50;99.90;;;;;;5013507;28;20133;-85
2023/12/27 08:18:26;;;;;;;16.38;7.25;;;3.50;99.90;;;;;;5013038;28;20124;-84
2023/12/27 08:20:51;;;;;;;14.43;7.88;;;3.50;99.90;;;;;;5013790;28;20044;-85
2023/12/27 08:23:17;;;;;;;15.43;6.93;;;3.60;99.90;;;;;;5013491;28;20133;-83
2023/12/27 08:25:44;;;;;;;16.63;7.05;;;3.60;99.90;;;;;;5012944;28;20038;-86
2023/12/27 08:28:11;;;;;;;18.33;6.68;;;3.60;99.90;;;;;;5004782;28;20046;-84
2023/12/27 08:30:38;;;;;;;17.45;6.68;;;3.60;99.90;;;;;;5013984;28;20046;-82
2023/12/27 08:33:07;;;;;;;18.63;7.32;;;3.60;99.90;;;;;;5014010;28;20069;-86
2023/12/27 08:35:36;;;;;;;14.20;6.80;;;3.60;99.90;;;;;;5012673;28;20045;-82
2023/12/27 08:38:05;;;;;;;22.60;6.93;;;3.60;99.90;;;;;;5014916;28;20217;-84
2023/12/27 08:40:30;;;;;;;15.50;6.60;;;3.70;99.90;;;;;;5011149;28;20050;-85
2023/12/27 08:42:57;;;;;;;18.00;6.88;;;3.70;99.90;;;;;;5009669;28;20038;-84
2023/12/27 08:45:23;;;;;;;14.73;6.97;;;3.70;99.90;;;;;;5014231;28;20081;-84
2023/12/27 08:47:49;;;;;;;15.15;6.03;;;3.70;99.90;;;;;;5013232;28;20147;-85
2023/12/27 08:50:15;;;;;;;14.32;6.63;;;3.70;99.90;;;;;;5013022;28;20041;-84
2023/12/27 08:52:40;;;;;;;23.92;6.75;;;3.70;99.90;;;;;;5012280;28;20470;-87
2023/12/27 08:55:08;;;;;;;23.70;7.15;;;3.70;99.90;;;;;;5012602;28;20052;-85
2023/12/27 08:57:34;;;;;;;14.05;5.90;;;3.80;99.90;;;;;;5012889;28;20133;-85
2023/12/27 09:00:00;;;;;;;15.85;6.25;;;3.80;99.90;;;;;;5012768;28;20125;-85
2023/12/27 09:02:27;;;;;;;15.30;6.30;;;3.80;99.90;;;;;;5013064;28;20103;-85
2023/12/27 09:04:52;;;;;;;18.45;5.75;;;3.80;99.90;;;;;;4996621;28;20061;-85
2023/12/27 09:07:18;;;;;;;15.20;5.68;;;4.10;99.90;;;;;;5012435;28;21752;-85
2023/12/27 09:09:43;;;;;;;15.23;6.38;;;3.80;99.90;;;;;;5012681;28;20052;-85
2023/12/27 09:12:09;;;;;;;11.93;5.65;;;3.80;99.90;;;;;;5012628;28;20046;-85
2023/12/27 09:14:38;;;;;;;13.95;5.22;;;3.80;99.90;;;;;;5012313;28;20817;-84
2023/12/27 09:17:04;;;;;;;18.00;6.38;;;3.90;99.90;;;;;;5012687;28;20049;-85
2023/12/27 09:19:29;;;;;;;16.60;5.40;;;3.90;99.90;;;;;;5012440;28;20057;-85
2023/12/27 09:21:55;;;;;;;12.00;5.43;;;3.90;99.90;;;;;;5012355;28;20045;-85
2023/12/27 09:24:21;;;;;;;15.85;5.28;;;3.90;99.90;;;;;;5012061;28;20034;-86
2023/12/27 09:26:49;;;;;;;21.65;5.90;;;3.90;99.90;;;;;;5012220;28;20132;-84
2023/12/27 09:29:15;;;;;;;16.77;5.45;;;3.90;99.90;;;;;;5011590;28;20050;-84
2023/12/27 09:31:41;;;;;;;16.45;4.75;;;4.00;99.90;;;;;;5011752;28;20049;-87
2023/12/27 09:34:07;;;;;;;19.17;4.82;;;4.00;99.90;;;;;;5012938;28;20560;-86
2023/12/27 09:36:32;;;;;;;20.13;5.07;;;4.00;99.90;;;;;;5012817;28;20050;-86
2023/12/27 09:38:59;;;;;;;16.48;5.20;;;4.00;99.90;;;;;;5011960;28;20034;-84
2023/12/27 09:41:24;;;;;;;16.40;5.18;;;4.00;99.90;;;;;;5012214;28;20077;-84
2023/12/27 09:43:53;;;;;;;15.20;4.82;;;4.10;99.90;;;;;;5012254;28;20505;-85
2023/12/27 09:46:20;;;;;;;12.45;4.90;;;4.10;99.90;;;;;;5012719;28;20049;-85
2023/12/27 09:48:47;;;;;;;15.15;5.00;;;4.10;99.90;;;;;;5011858;28;20058;-85
2023/12/27 09:51:14;;;;;;;13.25;4.70;;;4.10;99.90;;;;;;5012335;28;20104;-85
2023/12/27 09:53:42;;;;;;;14.50;4.45;;;4.20;99.90;;;;;;5012221;28;20050;-84
2023/12/27 09:56:08;;;;;;;15.57;4.72;;;4.40;99.90;;;;;;5008087;28;20046;-85
2023/12/27 09:58:37;;;;;;;12.27;4.05;;;4.20;99.90;;;;;;5003711;28;20052;-85
2023/12/27 10:01:05;;;;;;;19.27;5.05;;;4.20;99.90;;;;;;4999288;28;20461;-85
2023/12/27 10:03:35;;;;;;;16.80;4.47;;;4.20;99.90;;;;;;5012476;28;20050;-85
2023/12/27 10:06:28;;;;;;;11.95;4.18;;;4.20;99.90;;;;;;5011896;28;20053;-85
2023/12/27 10:08:55;;;;;;;14.52;4.93;;;4.30;99.90;;;;;;5011826;28;20046;-85
2023/12/27 10:11:22;;;;;;;12.70;5.30;;;4.30;99.90;;;;;;5010509;28;20042;-83
2023/12/27 10:13:50;;;;;;;12.15;4.82;;;4.30;99.90;;;;;;5011493;28;20050;-85
2023/12/27 10:16:17;;;;;;;13.45;4.30;;;4.30;99.90;;;;;;5012048;28;20092;-85
2023/12/27 10:18:47;;;;;;;15.65;5.40;;;4.40;99.90;;;;;;4995425;28;20054;-85
2023/12/27 10:21:13;;;;;;;13.27;4.97;;;4.40;99.90;;;;;;5012368;28;20049;-85
2023/12/27 10:23:39;;;;;;;15.65;6.25;;;4.40;99.90;;;;;;5012088;28;20479;-85
2023/12/27 10:26:05;;;;;;;12.88;5.40;;;4.40;99.90;;;;;;5011280;28;20103;-85
2023/12/27 10:28:31;;;;;;;15.20;5.80;;;4.50;99.90;;;;;;4998976;28;20505;-85
2023/12/27 10:30:56;;;;;;;12.80;5.57;;;4.50;99.90;;;;;;5012692;28;20046;-84
2023/12/27 10:33:23;;;;;;;10.30;5.43;;;4.50;99.90;;;;;;5014879;28;20100;-85
2023/12/27 10:35:49;;;;;;;18.02;5.78;;;4.60;99.90;;;;;;5015484;28;20050;-85
2023/12/27 10:38:15;;;;;;;16.80;6.30;;;4.60;99.90;;;;;;5015830;28;20046;-85
2023/12/27 10:40:41;;;;;;;13.93;6.63;;;4.70;99.90;;;;;;5015585;28;20100;-85
2023/12/27 10:43:08;;;;;;;18.63;6.45;;;4.60;99.90;;;;;;5008118;28;20046;-85
2023/12/27 10:45:35;;;;;;;18.90;6.43;;;4.70;99.90;;;;;;4995833;28;20144;-83
2023/12/27 10:48:06;;;;;;;18.52;7.10;;;4.80;99.90;;;;;;4995965;28;20050;-84
2023/12/27 10:50:34;;;;;;;18.98;6.50;;;4.80;99.90;;;;;;5004376;28;20073;-84
2023/12/27 10:53:06;;;;;;;15.15;7.13;;;4.80;99.90;;;;;;5014922;28;20038;-85
2023/12/27 10:55:35;;;;;;;17.98;6.88;;;4.80;99.90;;;;;;5015352;28;20045;-84
2023/12/27 10:58:04;;;;;;;21.80;6.80;;;4.90;99.90;;;;;;5014450;28;20054;-88
2023/12/27 11:00:30;;;;;;;17.48;6.47;;;4.90;99.90;;;;;;5015056;28;20096;-85
2023/12/27 11:02:57;;;;;;;21.88;7.10;;;4.90;99.90;;;;;;5015240;28;20042;-85
2023/12/27 11:05:24;;;;;;;18.38;6.82;;;4.90;99.90;;;;;;5015073;28;20540;-85
2023/12/27 11:07:52;;;;;;;18.70;6.90;;;5.10;99.90;;;;;;5015410;28;20053;-85
2023/12/27 11:10:19;;;;;;;18.92;7.10;;;5.00;99.90;;;;;;5017735;28;20139;-86
2023/12/27 11:12:46;;;;;;;18.95;7.25;;;5.00;99.90;;;;;;5014954;28;20046;-84
2023/12/27 11:15:18;;;;;;;21.85;8.00;;;5.00;99.90;;;;;;5015192;28;20508;-86
2023/12/27 11:17:45;;;;;;;19.50;7.47;;;5.10;99.90;;;;;;5015184;28;20128;-86
2023/12/27 11:20:12;;;;;;;17.77;7.32;;;5.10;99.90;;;;;;5013992;28;20061;-87
2023/12/27 11:22:44;;;;;;;18.08;7.72;;;5.10;99.90;;;;;;5014806;28;20077;-85
2023/12/27 11:25:12;;;;;;;21.92;7.25;;;5.10;99.90;;;;;;5014677;28;20125;-86
2023/12/27 11:27:39;;;;;;;22.05;8.73;;;5.10;99.90;;;;;;5014799;28;20124;-85
2023/12/27 11:30:12;;;;;;;18.00;7.65;;;5.10;99.90;;;;;;5014820;28;20050;-85
2023/12/27 11:32:40;;;;;;;21.25;8.52;;;5.10;99.90;;;;;;5014021;28;20480;-84
2023/12/27 11:35:22;;;;;;;19.27;8.05;;;5.10;99.90;;;;;;5014674;28;20041;-84
2023/12/27 11:37:49;;;;;;;18.75;7.63;;;5.20;99.90;;;;;;5014557;28;20105;-85
2023/12/27 11:40:35;;;;;;;18.45;7.70;;;5.20;99.90;;;;;;5014881;28;20084;-85
2023/12/27 11:43:03;;;;;;;20.27;8.65;;;5.20;99.90;;;;;;4993691;28;20081;-86
2023/12/27 11:46:01;;;;;;;18.13;7.95;;;5.20;99.90;;;;;;4995083;28;20435;-85
2023/12/27 11:48:31;;;;;;;26.25;8.55;;;5.20;99.90;;;;;;4994863;28;20069;-84
2023/12/27 11:50:59;;;;;;;18.13;8.43;;;5.20;99.90;;;;;;5009387;28;20096;-85
2023/12/27 11:53:29;;;;;;;20.08;9.07;;;5.20;99.90;;;;;;5013592;28;20050;-86
2023/12/27 11:56:01;;;;;;;26.23;10.43;;;5.20;99.90;;;;;;5015843;28;20046;-85
2023/12/27 11:58:38;;;;;;;18.35;8.80;;;5.20;99.90;;;;;;5017536;28;20132;-86
2023/12/27 12:01:26;;;;;;;23.88;9.57;;;5.30;99.90;;;;;;5016710;28;20050;-87
2023/12/27 12:04:22;;;;;;;22.88;9.50;;;5.20;99.90;;;;;;5016359;28;20057;-87
2023/12/27 12:06:53;;;;;;;26.52;9.73;;;5.20;99.90;;;;;;4999438;28;20053;-86
2023/12/27 12:09:22;;;;;;;23.58;9.85;;;5.20;99.90;;;;;;5014257;28;20045;-87
2023/12/27 12:11:48;;;;;;;26.83;9.90;;;5.30;99.90;;;;;;5012732;28;20116;-86
2023/12/27 12:14:15;;;;;;;22.17;10.10;;;5.20;99.90;;;;;;5012005;28;20061;-87
2023/12/27 12:16:41;;;;;;;24.45;11.15;;;5.20;99.90;;;;;;5012248;28;20046;-88
2023/12/27 12:19:10;;;;;;;27.05;10.05;;;5.30;99.90;;;;;;5012905;28;20046;-86
2023/12/27 12:21:38;;;;;;;22.30;10.90;;;5.20;99.90;;;;;;5013913;28;20057;-85
2023/12/27 12:24:07;;;;;;;25.42;11.25;;;5.20;99.90;;;;;;5013844;28;20046;-87
2023/12/27 12:26:34;;;;;;;24.27;10.40;;;5.20;99.90;;;;;;5013909;28;20112;-87
2023/12/27 12:29:01;;;;;;;23.80;10.45;;;5.30;99.90;;;;;;5013807;28;20046;-87
2023/12/27 12:31:27;;;;;;;23.75;10.98;;;5.20;99.90;;;;;;5013736;28;20046;-86
2023/12/27 12:33:53;;;;;;;23.80;10.98;;;5.20;99.90;;;;;;5012902;28;20115;-91
2023/12/27 12:36:19;;;;;;;19.52;11.30;;;5.30;99.90;;;;;;5004893;28;20422;-85
2023/12/27 12:38:45;;;;;;;20.90;10.88;;;5.30;99.90;;;;;;4982215;28;20046;-84
2023/12/27 12:41:11;;;;;;;18.23;10.07;;;5.30;99.90;;;;;;5012828;28;20041;-88
2023/12/27 12:43:37;;;;;;;25.17;11.15;;;5.30;99.90;;;;;;5011445;28;20109;-89
2023/12/27 12:46:04;;;;;;;17.88;10.07;;;5.30;99.90;;;;;;5014099;28;20053;-88
2023/12/27 12:48:30;;;;;;;18.42;10.55;;;5.30;99.90;;;;;;5013992;28;20489;-83